createdAt,value
2019-04-27T00:01:17.221Z,101045.62
2019-04-27T00:04:25.381Z,101041.95
2019-04-27T00:06:59.542Z,101045.98
2019-04-27T00:09:34.146Z,101049.15
2019-04-27T00:12:06.077Z,101046.98
2019-04-27T00:14:35.855Z,101040.59
2019-04-27T00:17:43.443Z,101041.46
2019-04-27T00:20:18.283Z,101039.64
2019-04-27T00:22:53.433Z,101041.46
2019-04-27T00:25:23.162Z,101043.19
2019-04-27T00:27:53.529Z,101040.84
2019-04-27T00:30:23.489Z,101031.91
2019-04-27T00:32:53.577Z,101032.43
2019-04-27T00:35:45.058Z,101029.61
2019-04-27T00:38:27.293Z,101030.95
2019-04-27T00:41:03.987Z,101030.95
2019-04-27T00:43:33.468Z,101026.92
2019-04-27T00:46:04.087Z,101031.81
2019-04-27T00:48:33.703Z,101032.30
2019-04-27T00:51:04.277Z,101029.98
2019-04-27T00:53:34.148Z,101028.64
2019-04-27T00:56:37.844Z,101027.30
2019-04-27T00:59:38.500Z,101035.22
2019-04-27T01:02:16.216Z,101027.64
2019-04-27T01:04:45.804Z,101025.44
2019-04-27T01:07:15.439Z,101017.75
2019-04-27T01:09:45.020Z,101021.30
2019-04-27T01:12:15.236Z,101017.64
2019-04-27T01:14:45.133Z,101008.23
2019-04-27T01:17:14.957Z,101000.16
2019-04-27T01:19:44.441Z,101004.06
2019-04-27T01:22:14.244Z,101006.27
2019-04-27T01:24:43.818Z,101001.74
2019-04-27T01:27:22.275Z,101007.95
2019-04-27T01:29:52.409Z,101002.95
2019-04-27T01:32:21.872Z,100996.23
2019-04-27T01:34:51.423Z,101000.64
2019-04-27T01:37:21.247Z,100999.30
2019-04-27T01:39:50.884Z,100994.27
2019-04-27T01:42:20.395Z,100986.20
2019-04-27T01:44:51.077Z,100989.27
2019-04-27T01:47:20.720Z,100990.13
2019-04-27T01:49:50.200Z,100989.13
2019-04-27T01:52:19.749Z,100980.57
2019-04-27T01:54:49.638Z,100977.88
2019-04-27T01:57:19.839Z,100980.95
2019-04-27T01:59:49.422Z,100980.95
2019-04-27T02:02:44.867Z,100979.95
2019-04-27T02:05:34.531Z,100976.77
2019-04-27T02:08:04.077Z,100971.88
2019-04-27T02:10:33.565Z,100976.39
2019-04-27T02:13:03.394Z,100911.47
2019-04-27T02:15:32.950Z,100964.30
2019-04-27T02:18:02.457Z,100971.88
2019-04-27T02:20:31.984Z,100965.16
2019-04-27T02:23:01.886Z,100967.22
2019-04-27T02:25:31.422Z,100965.05
2019-04-27T02:28:07.019Z,100963.70
2019-04-27T02:31:10.082Z,100964.94
2019-04-27T02:33:50.054Z,100960.05
2019-04-27T02:36:20.297Z,100958.70
2019-04-27T02:38:49.989Z,100949.73
2019-04-27T02:41:20.016Z,100946.59
2019-04-27T02:44:09.738Z,100948.32
2019-04-27T02:46:39.769Z,100951.87
2019-04-27T02:49:10.460Z,100954.56
2019-04-27T02:51:59.521Z,100953.22
2019-04-27T02:54:29.973Z,100956.77
2019-04-27T02:56:59.626Z,100954.56
2019-04-27T02:59:30.274Z,100951.39
2019-04-27T03:02:12.051Z,100949.19
2019-04-27T03:04:41.576Z,100949.52
2019-04-27T03:07:11.661Z,100951.73
2019-04-27T03:09:41.196Z,100953.45
2019-04-27T03:12:10.996Z,100952.59
2019-04-27T03:14:50.775Z,100952.11
2019-04-27T03:17:25.169Z,100955.66
2019-04-27T03:20:12.220Z,100958.34
2019-04-27T03:22:51.520Z,100953.31
2019-04-27T03:25:46.207Z,100944.76
2019-04-27T03:28:19.166Z,100944.27
2019-04-27T03:30:51.608Z,100945.13
2019-04-27T03:33:22.403Z,100947.83
2019-04-27T03:35:52.601Z,100946.34
2019-04-27T03:38:22.022Z,100944.51
2019-04-27T03:40:52.928Z,100945.37
2019-04-27T03:43:25.015Z,100936.78
2019-04-27T03:45:54.678Z,100936.67
2019-04-27T03:48:24.391Z,100933.50
2019-04-27T03:51:19.959Z,100934.70
2019-04-27T03:54:11.808Z,100935.42
2019-04-27T03:56:44.276Z,100934.45
2019-04-27T03:59:21.617Z,100931.27
2019-04-27T04:01:51.263Z,100927.58
2019-04-27T04:04:21.378Z,100929.30
2019-04-27T04:06:51.106Z,100925.64
2019-04-27T04:09:29.632Z,100925.98
2019-04-27T04:12:09.454Z,100925.88
2019-04-27T04:14:42.504Z,100917.17
2019-04-27T04:17:12.690Z,100920.95
2019-04-27T04:19:54.385Z,100913.61
2019-04-27T04:22:13.711Z,100924.45
2019-04-27T04:24:43.303Z,100920.05
2019-04-27T04:27:12.788Z,100923.20
2019-04-27T04:29:42.300Z,100924.16
2019-04-27T04:32:11.881Z,100924.61
2019-04-27T04:34:41.384Z,100922.38
2019-04-27T04:37:10.837Z,100918.80
2019-04-27T04:39:40.714Z,100916.08
2019-04-27T04:42:21.047Z,100913.50
2019-04-27T04:45:07.160Z,100909.58
2019-04-27T04:47:49.923Z,100912.23
2019-04-27T04:50:22.410Z,100910.48
2019-04-27T04:52:50.772Z,100911.30
2019-04-27T04:55:20.642Z,100906.85
2019-04-27T04:57:50.398Z,100911.72
2019-04-27T05:00:20.431Z,100915.34
2019-04-27T05:02:49.978Z,100911.27
2019-04-27T05:05:19.542Z,100918.78
2019-04-27T05:07:49.027Z,100915.22
2019-04-27T05:10:18.920Z,100913.80
2019-04-27T05:12:50.403Z,100907.65
2019-04-27T05:15:20.761Z,100908.95
2019-04-27T05:17:51.027Z,100905.01
2019-04-27T05:20:42.478Z,100899.72
2019-04-27T05:23:12.297Z,100903.83
2019-04-27T05:25:41.844Z,100896.33
2019-04-27T05:28:12.042Z,100897.25
2019-04-27T05:30:41.605Z,100907.61
2019-04-27T05:33:11.395Z,100903.18
2019-04-27T05:35:41.227Z,100904.59
2019-04-27T05:38:13.368Z,100910.58
2019-04-27T05:40:42.040Z,100911.00
2019-04-27T05:43:13.632Z,100908.37
2019-04-27T05:46:49.334Z,100915.33
2019-04-27T05:49:36.393Z,100917.75
2019-04-27T05:52:14.448Z,100925.42
2019-04-27T05:54:39.368Z,100923.09
2019-04-27T05:57:09.488Z,100921.95
2019-04-27T05:59:39.761Z,100920.33
2019-04-27T06:02:09.564Z,100923.61
2019-04-27T06:04:41.252Z,100918.77
2019-04-27T06:07:10.438Z,100921.70
2019-04-27T06:09:39.945Z,100916.52
2019-04-27T06:12:09.511Z,100924.22
2019-04-27T06:14:39.370Z,100924.77
2019-04-27T06:17:09.512Z,100924.00
2019-04-27T06:19:39.176Z,100922.86
2019-04-27T06:22:09.640Z,100926.14
2019-04-27T06:24:39.802Z,100926.84
2019-04-27T06:27:09.514Z,100927.91
2019-04-27T06:29:40.784Z,100928.95
2019-04-27T06:32:10.957Z,100928.67
2019-04-27T06:34:40.511Z,100922.13
2019-04-27T06:37:10.000Z,100926.39
2019-04-27T06:39:39.670Z,100924.76
2019-04-27T06:42:17.971Z,100925.45
2019-04-27T06:44:40.572Z,100930.09
2019-04-27T06:47:10.147Z,100925.39
2019-04-27T06:49:39.693Z,100926.61
2019-04-27T06:52:09.189Z,100930.99
2019-04-27T06:54:38.984Z,100927.67
2019-04-27T06:57:09.616Z,100927.16
2019-04-27T06:59:40.019Z,100926.02
2019-04-27T07:02:09.937Z,100920.98
2019-04-27T07:04:39.448Z,100919.99
2019-04-27T07:07:09.749Z,100919.34
2019-04-27T07:09:39.440Z,100918.84
2019-04-27T07:12:09.083Z,100917.83
2019-04-27T07:14:51.803Z,100866.66
2019-04-27T07:17:09.956Z,100906.38
2019-04-27T07:19:39.790Z,100905.88
2019-04-27T07:22:11.477Z,100903.55
2019-04-27T07:24:40.741Z,100889.55
2019-04-27T07:27:10.221Z,100888.56
2019-04-27T07:29:44.645Z,100890.44
2019-04-27T07:32:11.087Z,100889.09
2019-04-27T07:34:41.702Z,100893.14
2019-04-27T07:37:11.268Z,100888.69
2019-04-27T07:39:40.793Z,100885.30
2019-04-27T07:42:10.320Z,100888.98
2019-04-27T07:44:44.785Z,100887.42
2019-04-27T07:47:33.261Z,100893.31
2019-04-27T07:50:02.987Z,100892.62
2019-04-27T07:52:32.903Z,100893.27
2019-04-27T07:55:02.431Z,100895.97
2019-04-27T07:57:31.988Z,100905.91
2019-04-27T08:00:01.748Z,100902.72
2019-04-27T08:02:31.259Z,100910.83
2019-04-27T08:05:00.798Z,100913.36
2019-04-27T08:07:30.562Z,100910.66
2019-04-27T08:10:01.537Z,100910.02
2019-04-27T08:12:31.451Z,100909.52
2019-04-27T08:15:01.020Z,100904.98
2019-04-27T08:17:30.610Z,100908.87
2019-04-27T08:20:00.178Z,100911.94
2019-04-27T08:22:29.688Z,100914.64
2019-04-27T08:25:11.330Z,100913.66
2019-04-27T08:28:00.260Z,100919.88
2019-04-27T08:30:39.469Z,100915.00
2019-04-27T08:33:10.105Z,100921.39
2019-04-27T08:35:40.707Z,100915.98
2019-04-27T08:38:10.594Z,100923.72
2019-04-27T08:40:40.107Z,100926.95
2019-04-27T08:43:10.022Z,100925.72
2019-04-27T08:45:39.577Z,100919.13
2019-04-27T08:48:09.414Z,100922.33
2019-04-27T08:50:41.751Z,100918.43
2019-04-27T08:53:13.327Z,100921.63
2019-04-27T08:55:42.858Z,100918.56
2019-04-27T08:58:12.334Z,100912.83
2019-04-27T09:00:42.791Z,100916.14
2019-04-27T09:03:12.496Z,100919.86
2019-04-27T09:05:42.040Z,100918.14
2019-04-27T09:08:30.441Z,100927.23
2019-04-27T09:11:21.643Z,100928.24
2019-04-27T09:14:13.252Z,100919.94
2019-04-27T09:17:00.120Z,100925.45
2019-04-27T09:19:34.199Z,100931.51
2019-04-27T09:22:16.035Z,100929.45
2019-04-27T09:24:39.733Z,100938.20
2019-04-27T09:27:09.717Z,100940.53
2019-04-27T09:29:39.648Z,100936.64
2019-04-27T09:32:09.413Z,100932.38
2019-04-27T09:34:38.930Z,100933.86
2019-04-27T09:37:08.467Z,100940.77
2019-04-27T09:39:38.119Z,100937.20
2019-04-27T09:42:07.699Z,100941.91
2019-04-27T09:44:37.294Z,100933.92
2019-04-27T09:47:06.864Z,100942.55
2019-04-27T09:49:38.348Z,100946.72
2019-04-27T09:52:07.578Z,100947.86
2019-04-27T09:54:37.211Z,100946.30
2019-04-27T09:57:07.122Z,100944.23
2019-04-27T09:59:39.436Z,100939.49
2019-04-27T10:02:08.859Z,100946.02
2019-04-27T10:04:38.518Z,100947.16
2019-04-27T10:07:08.434Z,100951.48
2019-04-27T10:09:37.977Z,100949.92
2019-04-27T10:12:07.813Z,100947.83
2019-04-27T10:14:37.425Z,100954.73
2019-04-27T10:17:06.990Z,100949.45
2019-04-27T10:19:36.731Z,100946.02
2019-04-27T10:22:06.546Z,100941.77
2019-04-27T10:24:36.216Z,100945.47
2019-04-27T10:27:07.963Z,100947.46
2019-04-27T10:29:37.641Z,100953.84
2019-04-27T10:32:07.266Z,100950.44
2019-04-27T10:34:36.772Z,100953.25
2019-04-27T10:37:06.284Z,100951.57
2019-04-27T10:39:36.222Z,100949.84
2019-04-27T10:42:06.718Z,100956.23
2019-04-27T10:44:36.607Z,100943.26
2019-04-27T10:47:06.754Z,100954.66
2019-04-27T10:49:36.476Z,100953.95
2019-04-27T10:52:06.095Z,100954.11
2019-04-27T10:54:35.687Z,100956.31
2019-04-27T10:57:06.054Z,100941.11
2019-04-27T10:59:36.136Z,100951.03
2019-04-27T11:02:05.885Z,100936.36
2019-04-27T11:05:12.467Z,100940.89
2019-04-27T11:07:42.320Z,100938.56
2019-04-27T11:10:12.063Z,100931.08
2019-04-27T11:12:41.770Z,100929.13
2019-04-27T11:15:12.243Z,100933.50
2019-04-27T11:17:42.008Z,100939.12
2019-04-27T11:20:12.300Z,100938.47
2019-04-27T11:22:42.096Z,100933.81
2019-04-27T11:25:12.103Z,100931.95
2019-04-27T11:27:41.558Z,100928.27
2019-04-27T11:30:12.239Z,100929.98
2019-04-27T11:32:41.759Z,100933.88
2019-04-27T11:35:36.494Z,100937.92
2019-04-27T11:38:06.436Z,100931.55
2019-04-27T11:40:36.454Z,100922.11
2019-04-27T11:43:07.396Z,100931.39
2019-04-27T11:45:36.962Z,100923.80
2019-04-27T11:48:06.565Z,100918.06
2019-04-27T11:50:36.148Z,100924.66
2019-04-27T11:53:06.191Z,100931.39
2019-04-27T11:55:36.045Z,100934.59
2019-04-27T11:58:06.559Z,100931.55
2019-04-27T12:00:36.577Z,100936.30
2019-04-27T12:03:06.767Z,100936.30
2019-04-27T12:05:36.513Z,100939.49
2019-04-27T12:08:06.368Z,100941.20
2019-04-27T12:10:36.392Z,100933.61
2019-04-27T12:13:07.600Z,100933.97
2019-04-27T12:15:37.250Z,100936.67
2019-04-27T12:18:09.031Z,100929.92
2019-04-27T12:20:38.107Z,100937.01
2019-04-27T12:23:07.573Z,100941.55
2019-04-27T12:25:37.490Z,100942.89
2019-04-27T12:28:17.309Z,100944.24
2019-04-27T12:30:59.848Z,100942.41
2019-04-27T12:33:30.607Z,100940.20
2019-04-27T12:36:00.185Z,100932.63
2019-04-27T12:38:29.998Z,100935.33
2019-04-27T12:40:59.555Z,100931.61
2019-04-27T12:43:29.518Z,100938.84
2019-04-27T12:45:59.247Z,100934.67
2019-04-27T12:48:28.826Z,100938.73
2019-04-27T12:50:58.389Z,100933.33
2019-04-27T12:53:49.956Z,100925.23
2019-04-27T12:56:18.358Z,100931.48
2019-04-27T12:58:56.448Z,100934.89
2019-04-27T13:01:26.504Z,100929.00
2019-04-27T13:03:58.885Z,100922.59
2019-04-27T13:06:27.340Z,100919.41
2019-04-27T13:08:56.876Z,100918.06
2019-04-27T13:11:26.848Z,100921.62
2019-04-27T13:13:57.657Z,100924.31
2019-04-27T13:16:30.345Z,100919.25
2019-04-27T13:18:58.605Z,100923.83
2019-04-27T13:21:28.197Z,100921.62
2019-04-27T13:24:04.083Z,100923.09
2019-04-27T13:26:28.991Z,100924.22
2019-04-27T13:28:58.661Z,100922.54
2019-04-27T13:31:28.113Z,100927.23
2019-04-27T13:33:57.696Z,100919.41
2019-04-27T13:36:27.669Z,100927.13
2019-04-27T13:38:57.216Z,100922.23
2019-04-27T13:41:32.652Z,100918.83
2019-04-27T13:43:58.105Z,100920.33
2019-04-27T13:46:46.941Z,100914.08
2019-04-27T13:49:34.054Z,100919.10
2019-04-27T13:52:13.333Z,100917.53
2019-04-27T13:54:43.312Z,100914.84
2019-04-27T13:57:12.836Z,100918.18
2019-04-27T13:59:42.439Z,100919.68
2019-04-27T14:02:13.245Z,100921.52
2019-04-27T14:04:42.979Z,100915.76
2019-04-27T14:07:12.531Z,100916.25
2019-04-27T14:09:42.066Z,100921.16
2019-04-27T14:12:21.205Z,100917.59
2019-04-27T14:14:50.887Z,100911.86
2019-04-27T14:17:20.605Z,100921.80
2019-04-27T14:19:50.156Z,100914.68
2019-04-27T14:22:19.651Z,100910.63
2019-04-27T14:24:49.224Z,100918.23
2019-04-27T14:27:20.544Z,100913.33
2019-04-27T14:29:50.305Z,100908.95
2019-04-27T14:32:20.056Z,100921.09
2019-04-27T14:34:50.347Z,100912.14
2019-04-27T14:37:20.037Z,100912.14
2019-04-27T14:39:49.633Z,100908.58
2019-04-27T14:42:19.367Z,100910.42
2019-04-27T14:44:49.510Z,100911.44
2019-04-27T14:47:19.252Z,100900.64
2019-04-27T14:49:49.201Z,100905.30
2019-04-27T14:52:19.013Z,100902.60
2019-04-27T14:54:50.760Z,100900.42
2019-04-27T14:57:20.649Z,100905.08
2019-04-27T14:59:50.591Z,100904.26
2019-04-27T15:02:21.186Z,100904.86
2019-04-27T15:04:50.734Z,100907.56
2019-04-27T15:07:20.411Z,100904.53
2019-04-27T15:09:56.151Z,100903.30
2019-04-27T15:12:24.453Z,100903.79
2019-04-27T15:14:53.342Z,100911.05
2019-04-27T15:17:26.569Z,100903.57
2019-04-27T15:20:01.245Z,100909.98
2019-04-27T15:22:32.366Z,100913.16
2019-04-27T15:25:13.598Z,100918.19
2019-04-27T15:27:44.370Z,100921.41
2019-04-27T15:30:22.295Z,100916.50
2019-04-27T15:33:16.146Z,100914.78
2019-04-27T15:35:48.733Z,100923.36
2019-04-27T15:38:22.050Z,100922.65
2019-04-27T15:41:16.412Z,100924.15
2019-04-27T15:43:48.555Z,100914.34
2019-04-27T15:46:18.583Z,100921.57
2019-04-27T15:48:48.736Z,100920.71
2019-04-27T15:51:21.174Z,100923.93
2019-04-27T15:53:50.808Z,100926.74
2019-04-27T15:56:21.782Z,100919.52
2019-04-27T15:58:55.699Z,100928.09
2019-04-27T16:01:24.924Z,100921.99
2019-04-27T16:03:54.977Z,100930.94
2019-04-27T16:06:24.562Z,100934.61
2019-04-27T16:08:54.330Z,100942.36
2019-04-27T16:11:23.958Z,100938.31
2019-04-27T16:13:53.514Z,100941.50
2019-04-27T16:16:24.499Z,100950.08
2019-04-27T16:18:54.503Z,100947.01
2019-04-27T16:21:24.159Z,100940.79
2019-04-27T16:23:53.730Z,100947.16
2019-04-27T16:26:23.115Z,100945.81
2019-04-27T16:28:53.475Z,100954.39
2019-04-27T16:31:24.915Z,100948.28
2019-04-27T16:34:01.005Z,100948.73
2019-04-27T16:36:26.091Z,100949.75
2019-04-27T16:39:03.720Z,100951.59
2019-04-27T16:41:32.977Z,100953.53
2019-04-27T16:44:14.932Z,100955.89
2019-04-27T16:46:44.493Z,100951.48
2019-04-27T16:49:15.091Z,100953.84
2019-04-27T16:51:44.918Z,100959.23
2019-04-27T16:54:17.672Z,100962.04
2019-04-27T16:56:50.562Z,100959.49
2019-04-27T16:59:38.714Z,100953.24
2019-04-27T17:01:50.158Z,100958.78
2019-04-27T17:04:19.842Z,100958.41
2019-04-27T17:06:50.290Z,100962.45
2019-04-27T17:09:20.035Z,100965.78
2019-04-27T17:11:50.506Z,100969.83
2019-04-27T17:14:38.753Z,100963.72
2019-04-27T17:17:30.099Z,100969.45
2019-04-27T17:20:02.241Z,100967.02
2019-04-27T17:22:31.903Z,100977.45
2019-04-27T17:25:01.410Z,100971.70
2019-04-27T17:27:38.312Z,100974.88
2019-04-27T17:30:09.075Z,100976.23
2019-04-27T17:32:58.820Z,100976.37
2019-04-27T17:35:28.968Z,100974.17
2019-04-27T17:37:59.613Z,100973.45
2019-04-27T17:40:29.956Z,100973.95
2019-04-27T17:43:06.916Z,100976.27
2019-04-27T17:45:36.225Z,100982.17
2019-04-27T17:48:06.821Z,100981.80
2019-04-27T17:50:34.690Z,100987.34
2019-04-27T17:53:04.289Z,100986.10
2019-04-27T17:55:33.880Z,100990.63
2019-04-27T17:58:05.070Z,100993.47
2019-04-27T18:00:43.120Z,100997.62
2019-04-27T18:03:08.305Z,101003.53
2019-04-27T18:05:38.996Z,101006.34
2019-04-27T18:08:08.568Z,101009.66
2019-04-27T18:10:38.283Z,101011.98
2019-04-27T18:13:08.604Z,101013.48
2019-04-27T18:15:38.856Z,101014.97
2019-04-27T18:18:22.838Z,101014.11
2019-04-27T18:20:49.410Z,101016.43
2019-04-27T18:23:21.401Z,101020.24
2019-04-27T18:25:56.492Z,101019.38
2019-04-27T18:28:28.666Z,100982.78
2019-04-27T18:31:16.199Z,101037.66
2019-04-27T18:33:46.501Z,101036.91
2019-04-27T18:36:15.995Z,101037.92
2019-04-27T18:38:45.588Z,101045.14
2019-04-27T18:41:15.172Z,101047.98
2019-04-27T18:43:50.850Z,101052.98
2019-04-27T18:46:22.001Z,101050.78
2019-04-27T18:49:06.178Z,101057.17
2019-04-27T18:51:44.772Z,101058.62
2019-04-27T18:54:14.314Z,101067.19
2019-04-27T18:56:43.883Z,101069.05
2019-04-27T18:59:13.429Z,101071.00
2019-04-27T19:01:42.964Z,101069.65
2019-04-27T19:04:12.584Z,101068.94
2019-04-27T19:06:42.228Z,101069.91
2019-04-27T19:09:11.873Z,101073.12
2019-04-27T19:11:53.389Z,101077.27
2019-04-27T19:14:12.663Z,101077.27
2019-04-27T19:16:42.212Z,101074.23
2019-04-27T19:19:12.622Z,101077.86
2019-04-27T19:21:42.317Z,101088.25
2019-04-27T19:24:11.875Z,101083.87
2019-04-27T19:26:53.829Z,101087.53
2019-04-27T19:29:37.740Z,101084.84
2019-04-27T19:32:08.038Z,101081.91
2019-04-27T19:34:38.864Z,101086.44
2019-04-27T19:37:08.593Z,101087.92
2019-04-27T19:39:39.442Z,101088.41
2019-04-27T19:42:09.122Z,101096.97
2019-04-27T19:44:39.009Z,101089.03
2019-04-27T19:47:10.420Z,101090.87
2019-04-27T19:49:40.100Z,101094.19
2019-04-27T19:52:10.124Z,101092.94
2019-04-27T19:54:39.921Z,101089.91
2019-04-27T19:57:09.517Z,101085.88
2019-04-27T19:59:44.852Z,101088.19
2019-04-27T20:02:18.476Z,101093.23
2019-04-27T20:04:55.331Z,101088.33
2019-04-27T20:07:24.901Z,101089.30
2019-04-27T20:09:59.461Z,101092.13
2019-04-27T20:12:29.062Z,101091.75
2019-04-27T20:14:59.006Z,101091.41
2019-04-27T20:17:31.330Z,101088.34
2019-04-27T20:20:01.915Z,101088.34
2019-04-27T20:22:31.753Z,101092.48
2019-04-27T20:25:02.054Z,101100.70
2019-04-27T20:27:45.081Z,101098.01
2019-04-27T20:30:03.960Z,101093.73
2019-04-27T20:32:33.503Z,101107.19
2019-04-27T20:35:03.159Z,101109.50
2019-04-27T20:37:32.682Z,101106.95
2019-04-27T20:40:02.466Z,101109.64
2019-04-27T20:42:32.049Z,101109.89
2019-04-27T20:45:02.232Z,101107.82
2019-04-27T20:47:32.364Z,101111.86
2019-04-27T20:50:01.915Z,101109.16
2019-04-27T20:52:36.880Z,101111.13
2019-04-27T20:55:07.111Z,101110.75
2019-04-27T20:57:36.601Z,101117.97
2019-04-27T21:00:06.730Z,101115.76
2019-04-27T21:02:42.711Z,101111.00
2019-04-27T21:05:24.429Z,101116.86
2019-04-27T21:07:57.486Z,101116.14
2019-04-27T21:10:27.027Z,101122.00
2019-04-27T21:12:56.562Z,101118.97
2019-04-27T21:15:26.131Z,101117.73
2019-04-27T21:17:55.775Z,101117.73
2019-04-27T21:20:25.296Z,101120.08
2019-04-27T21:22:54.888Z,101117.48
2019-04-27T21:25:24.338Z,101115.31
2019-04-27T21:27:53.925Z,101120.31
2019-04-27T21:30:23.464Z,101119.94
2019-04-27T21:32:53.004Z,101120.45
2019-04-27T21:35:22.598Z,101118.25
2019-04-27T21:37:52.297Z,101127.28
2019-04-27T21:40:23.006Z,101121.05
2019-04-27T21:42:52.643Z,101123.39
2019-04-27T21:45:22.807Z,101118.11
2019-04-27T21:47:52.297Z,101120.94
2019-04-27T21:50:23.305Z,101121.80
2019-04-27T21:53:00.602Z,101115.56
2019-04-27T21:55:31.452Z,101117.01
2019-04-27T21:58:02.869Z,101118.01
2019-04-27T22:00:52.679Z,101117.63
2019-04-27T22:03:26.041Z,101121.31
2019-04-27T22:05:57.964Z,101118.73
2019-04-27T22:08:27.524Z,101122.91
2019-04-27T22:10:57.138Z,101122.05
2019-04-27T22:13:26.753Z,101128.39
2019-04-27T22:15:56.291Z,101132.42
2019-04-27T22:18:27.370Z,101131.21
2019-04-27T22:20:57.290Z,101135.25
2019-04-27T22:23:33.780Z,101133.52
2019-04-27T22:26:03.381Z,101138.91
2019-04-27T22:28:46.419Z,101142.45
2019-04-27T22:31:04.652Z,101141.48
2019-04-27T22:33:34.590Z,101145.39
2019-04-27T22:36:04.151Z,101149.31
2019-04-27T22:38:33.740Z,101149.66
2019-04-27T22:41:16.810Z,101158.98
2019-04-27T22:44:03.890Z,101155.77
2019-04-27T22:46:33.691Z,101156.16
2019-04-27T22:49:03.283Z,101157.88
2019-04-27T22:51:32.880Z,101165.80
2019-04-27T22:54:02.832Z,101165.33
2019-04-27T22:56:32.431Z,101168.50
2019-04-27T22:59:11.744Z,101171.67
2019-04-27T23:01:53.727Z,101171.80
2019-04-27T23:04:32.427Z,101176.33
2019-04-27T23:07:02.736Z,101179.50
2019-04-27T23:09:32.456Z,101175.95
2019-04-27T23:12:02.477Z,101181.94
2019-04-27T23:14:32.202Z,101186.98
2019-04-27T23:17:12.698Z,101185.63
2019-04-27T23:19:42.835Z,101191.49
2019-04-27T23:22:12.428Z,101184.88
2019-04-27T23:24:41.957Z,101187.22
2019-04-27T23:27:11.451Z,101190.87
2019-04-27T23:29:41.771Z,101193.14
2019-04-27T23:32:21.433Z,101191.80
2019-04-27T23:34:51.459Z,101194.14
2019-04-27T23:37:21.200Z,101200.38
2019-04-27T23:39:50.899Z,101193.77
2019-04-27T23:42:21.697Z,101197.93
2019-04-27T23:44:51.286Z,101206.86
2019-04-27T23:47:20.859Z,101206.48
2019-04-27T23:49:50.889Z,101208.69
2019-04-27T23:52:25.504Z,101207.44
2019-04-27T23:54:55.012Z,101214.68
2019-04-27T23:57:24.525Z,101213.81
2019-04-27T23:59:54.057Z,101214.30
